Time;durP1;ratioP1;P1;durP2;ratioP2;P2;SDS_P1;SDS_P2;PMS_P1;PMS_P2;Temp;Humidity;BMP_temperature;BMP_pressure;BME280_temperature;BME280_humidity;BME280_pressure;Samples;Min_cycle;Max_cycle;Signal;HPM_P1;HPM_P2
2022/03/31 00:00:41;;;;;;;32.38;17.48;;;9.40;99.90;;;;;;5100354;28;20107;-82
2022/03/31 00:03:09;;;;;;;32.38;16.70;;;9.40;99.90;;;;;;5100331;28;20024;-82
2022/03/31 00:05:36;;;;;;;33.30;16.55;;;9.30;99.90;;;;;;5100425;28;20496;-83
2022/03/31 00:08:06;;;;;;;42.75;17.83;;;9.30;99.90;;;;;;5099037;28;20043;-81
2022/03/31 00:10:36;;;;;;;43.22;19.67;;;9.30;99.90;;;;;;5097841;28;20385;-82
2022/03/31 00:13:04;;;;;;;40.03;19.48;;;9.30;99.90;;;;;;5098888;28;20024;-82
2022/03/31 00:15:31;;;;;;;30.15;17.70;;;9.20;99.90;;;;;;5099898;28;20059;-83
2022/03/31 00:17:58;;;;;;;40.58;19.77;;;9.20;99.90;;;;;;5100562;28;20024;-84
2022/03/31 00:20:25;;;;;;;43.17;20.40;;;9.20;99.90;;;;;;5100295;28;20055;-83
2022/03/31 00:22:51;;;;;;;37.67;19.33;;;9.20;99.90;;;;;;5101017;28;20361;-83
2022/03/31 00:25:17;;;;;;;41.05;20.25;;;9.20;99.90;;;;;;5099674;28;20034;-82
2022/03/31 00:27:43;;;;;;;41.20;20.30;;;9.30;99.90;;;;;;5100890;28;20024;-83
2022/03/31 00:30:11;;;;;;;41.65;20.73;;;9.20;99.90;;;;;;5098940;28;20032;-82
2022/03/31 00:32:38;;;;;;;43.60;20.70;;;9.20;99.90;;;;;;5098921;28;20020;-82
2022/03/31 00:35:05;;;;;;;38.47;18.85;;;9.30;99.90;;;;;;5100036;28;20043;-83
2022/03/31 00:37:31;;;;;;;33.33;18.70;;;9.20;99.90;;;;;;5098779;28;20081;-83
2022/03/31 00:39:57;;;;;;;44.30;21.65;;;9.20;99.90;;;;;;5099772;28;20036;-82
2022/03/31 00:42:23;;;;;;;55.80;21.17;;;9.20;99.90;;;;;;5100042;28;20069;-84
2022/03/31 00:44:50;;;;;;;39.60;20.08;;;9.10;99.90;;;;;;5099446;28;20048;-82
2022/03/31 00:47:17;;;;;;;41.08;21.27;;;9.10;99.90;;;;;;5098306;28;20031;-84
2022/03/31 00:49:43;;;;;;;39.05;21.95;;;9.10;99.90;;;;;;5098157;28;20031;-82
2022/03/31 00:52:10;;;;;;;43.15;22.63;;;9.00;99.90;;;;;;5098333;28;20496;-83
2022/03/31 00:54:37;;;;;;;38.30;21.67;;;9.00;99.90;;;;;;5099224;28;20484;-83
2022/03/31 00:57:06;;;;;;;37.47;21.02;;;9.00;99.90;;;;;;5098159;28;20031;-83
2022/03/31 00:59:32;;;;;;;43.50;22.38;;;9.00;99.90;;;;;;5099135;28;20111;-83
2022/03/31 01:01:59;;;;;;;43.05;22.88;;;9.00;99.90;;;;;;5099425;28;20059;-83
2022/03/31 01:04:27;;;;;;;45.63;21.52;;;9.00;99.90;;;;;;5099438;28;20024;-84
2022/03/31 01:06:53;;;;;;;40.60;21.77;;;9.00;99.90;;;;;;5094426;28;20387;-83
2022/03/31 01:09:19;;;;;;;42.40;21.08;;;9.10;99.90;;;;;;5094350;28;20107;-83
2022/03/31 01:11:45;;;;;;;43.20;20.83;;;9.10;99.90;;;;;;5099102;28;20016;-82
2022/03/31 01:14:11;;;;;;;39.08;21.90;;;9.10;99.90;;;;;;5097398;28;20583;-83
2022/03/31 01:16:38;;;;;;;46.58;23.40;;;9.10;99.90;;;;;;5099414;28;20141;-82
2022/03/31 01:19:08;;;;;;;46.40;22.35;;;9.20;99.90;;;;;;5097647;28;20024;-82
2022/03/31 01:21:38;;;;;;;43.75;21.42;;;9.20;99.90;;;;;;5098928;28;20043;-83
2022/03/31 01:24:09;;;;;;;42.38;22.23;;;9.20;99.90;;;;;;5097498;28;20024;-82
2022/03/31 01:26:38;;;;;;;43.00;22.15;;;9.20;99.90;;;;;;5098991;28;20043;-83
2022/03/31 01:29:05;;;;;;;43.15;23.30;;;9.20;99.90;;;;;;5097104;28;20049;-83
2022/03/31 01:31:32;;;;;;;41.30;21.75;;;9.20;99.90;;;;;;5097447;28;20021;-82
2022/03/31 01:33:58;;;;;;;49.63;21.88;;;9.20;99.90;;;;;;5097310;28;20024;-82
2022/03/31 01:36:25;;;;;;;33.30;18.42;;;9.20;99.90;;;;;;5097381;28;20035;-82
2022/03/31 01:38:52;;;;;;;53.30;22.83;;;9.30;99.90;;;;;;5098518;28;20026;-82
2022/03/31 01:41:18;;;;;;;45.70;22.70;;;9.30;99.90;;;;;;5097429;28;20024;-81
2022/03/31 01:43:44;;;;;;;39.47;22.52;;;9.30;99.90;;;;;;5097331;28;20044;-82
2022/03/31 01:46:10;;;;;;;52.20;23.63;;;9.30;99.90;;;;;;5099450;28;20032;-81
2022/03/31 01:48:36;;;;;;;53.63;23.35;;;9.30;99.90;;;;;;5100030;28;20020;-80
2022/03/31 01:51:04;;;;;;;35.80;20.00;;;9.30;99.90;;;;;;5099509;28;20380;-81
2022/03/31 01:53:36;;;;;;;39.67;21.88;;;9.30;99.90;;;;;;5099747;28;20024;-81
2022/03/31 01:56:02;;;;;;;47.03;22.90;;;9.30;99.90;;;;;;5097200;28;20404;-82
2022/03/31 01:58:28;;;;;;;43.53;20.60;;;9.30;99.90;;;;;;5098547;28;20392;-82
2022/03/31 02:00:54;;;;;;;43.65;22.10;;;9.30;99.90;;;;;;5097977;28;20102;-82
2022/03/31 02:03:19;;;;;;;30.85;19.70;;;9.30;99.90;;;;;;5097094;28;20488;-82
2022/03/31 02:05:45;;;;;;;37.75;21.48;;;9.30;99.90;;;;;;5095924;28;20079;-82
2022/03/31 02:08:12;;;;;;;44.97;23.48;;;9.30;99.90;;;;;;5098560;28;20020;-82
2022/03/31 02:10:37;;;;;;;32.80;19.23;;;9.30;99.90;;;;;;5096767;28;20044;-81
2022/03/31 02:13:05;;;;;;;32.97;20.02;;;9.30;99.90;;;;;;5096682;28;20031;-82
2022/03/31 02:15:31;;;;;;;41.97;23.00;;;9.30;99.90;;;;;;5096321;28;20583;-81
2022/03/31 02:17:57;;;;;;;42.75;22.77;;;9.30;99.90;;;;;;5097982;28;20151;-81
2022/03/31 02:20:26;;;;;;;46.13;21.95;;;9.30;99.90;;;;;;5097988;28;20388;-82
2022/03/31 02:22:52;;;;;;;35.38;19.38;;;9.30;99.90;;;;;;5096616;28;20028;-81
2022/03/31 02:25:17;;;;;;;39.45;21.83;;;9.30;99.90;;;;;;5097868;28;20034;-83
2022/03/31 02:27:43;;;;;;;39.80;21.05;;;9.30;99.90;;;;;;5096715;28;20023;-82
2022/03/31 02:30:09;;;;;;;41.90;20.17;;;9.30;99.90;;;;;;5096245;28;20028;-81
2022/03/31 02:32:37;;;;;;;41.25;22.20;;;9.30;99.90;;;;;;5096529;28;20016;-82
2022/03/31 02:35:05;;;;;;;44.72;21.88;;;9.30;99.90;;;;;;5097816;28;20020;-83
2022/03/31 02:37:31;;;;;;;35.75;19.08;;;9.30;99.90;;;;;;5096406;28;20024;-82
2022/03/31 02:39:57;;;;;;;29.48;14.65;;;9.30;99.90;;;;;;5098104;28;20028;-84
2022/03/31 02:42:24;;;;;;;31.05;19.13;;;9.30;99.90;;;;;;5098215;28;20020;-82
2022/03/31 02:44:49;;;;;;;38.83;20.30;;;9.30;99.90;;;;;;5097731;28;20048;-83
2022/03/31 02:47:16;;;;;;;43.63;19.98;;;9.30;99.90;;;;;;5098576;28;20103;-81
2022/03/31 02:49:41;;;;;;;32.35;17.48;;;9.30;99.90;;;;;;5098010;28;20430;-82
2022/03/31 02:52:08;;;;;;;48.97;23.33;;;9.30;99.90;;;;;;5098208;28;20024;-82
2022/03/31 02:57:18;;;;;;;37.65;20.15;;;9.30;99.90;;;;;;5097908;28;20031;-81
2022/03/31 02:59:45;;;;;;;33.60;19.27;;;9.30;99.90;;;;;;5097396;28;20055;-82
2022/03/31 03:02:11;;;;;;;37.30;20.15;;;9.30;99.90;;;;;;5096353;28;20027;-82
2022/03/31 03:04:37;;;;;;;33.03;21.02;;;9.40;99.90;;;;;;5097462;28;20079;-81
2022/03/31 03:07:03;;;;;;;38.53;19.70;;;9.30;99.90;;;;;;5096391;28;20016;-82
2022/03/31 03:09:29;;;;;;;44.65;20.92;;;9.40;99.90;;;;;;5097805;28;20020;-82
2022/03/31 03:11:55;;;;;;;38.72;19.80;;;9.40;99.90;;;;;;5098964;28;20027;-82
2022/03/31 03:14:22;;;;;;;33.40;18.15;;;9.30;99.90;;;;;;5098447;28;20024;-83
2022/03/31 03:16:48;;;;;;;33.50;20.48;;;9.30;99.90;;;;;;5098769;28;20449;-83
2022/03/31 03:19:14;;;;;;;35.28;20.15;;;9.30;99.90;;;;;;5101912;28;20111;-83
2022/03/31 03:21:41;;;;;;;27.42;17.58;;;9.30;99.90;;;;;;5100271;28;20055;-84
2022/03/31 03:24:07;;;;;;;35.60;18.33;;;9.20;99.90;;;;;;5100060;28;20031;-83
2022/03/31 03:26:32;;;;;;;38.22;20.35;;;9.20;99.90;;;;;;5099686;28;20032;-80
2022/03/31 03:28:59;;;;;;;34.58;19.65;;;9.20;99.90;;;;;;5100824;28;20545;-82
2022/03/31 03:31:24;;;;;;;38.95;19.88;;;9.20;99.90;;;;;;5099751;28;20024;-82
2022/03/31 03:33:50;;;;;;;32.70;20.50;;;9.20;99.90;;;;;;5100913;28;20104;-82
2022/03/31 03:36:19;;;;;;;38.15;19.00;;;9.20;99.90;;;;;;5099590;28;20176;-81
2022/03/31 03:38:45;;;;;;;38.45;18.75;;;9.10;99.90;;;;;;5100836;28;20035;-81
2022/03/31 03:41:12;;;;;;;35.28;20.20;;;9.10;99.90;;;;;;5099632;28;20136;-81
2022/03/31 03:43:42;;;;;;;29.67;16.92;;;9.10;99.90;;;;;;5098571;28;20044;-80
2022/03/31 03:46:09;;;;;;;42.42;19.90;;;9.10;99.90;;;;;;5100796;28;20024;-80
2022/03/31 03:48:35;;;;;;;34.92;19.67;;;9.10;99.90;;;;;;5100731;28;20108;-80
2022/03/31 03:51:01;;;;;;;44.15;20.58;;;9.00;99.90;;;;;;5100777;28;20055;-81
2022/03/31 03:53:27;;;;;;;42.47;21.10;;;9.00;99.90;;;;;;5100664;28;20027;-80
2022/03/31 03:55:53;;;;;;;45.85;22.40;;;9.00;99.90;;;;;;5100886;28;20045;-80
2022/03/31 03:58:19;;;;;;;36.70;20.17;;;9.00;99.90;;;;;;5100453;28;20027;-81
2022/03/31 04:00:46;;;;;;;44.22;20.95;;;9.00;99.90;;;;;;5100357;28;20024;-81
2022/03/31 04:03:12;;;;;;;44.58;20.85;;;9.00;99.90;;;;;;5100530;28;20031;-82
2022/03/31 04:05:38;;;;;;;38.10;21.95;;;9.00;99.90;;;;;;5100460;28;20031;-81
2022/03/31 04:08:04;;;;;;;44.40;20.50;;;9.00;99.90;;;;;;5099073;28;20573;-81
2022/03/31 04:10:33;;;;;;;45.50;21.25;;;9.00;99.90;;;;;;5099036;28;20043;-81
2022/03/31 04:13:00;;;;;;;35.50;20.15;;;8.90;99.90;;;;;;5099020;28;20020;-80
2022/03/31 04:15:25;;;;;;;43.10;19.15;;;9.00;99.90;;;;;;5098494;28;20075;-82
2022/03/31 04:17:51;;;;;;;44.83;21.42;;;9.00;99.90;;;;;;5100458;28;20016;-82
2022/03/31 04:20:17;;;;;;;40.78;20.88;;;9.00;99.90;;;;;;5098755;28;20032;-81
2022/03/31 04:22:43;;;;;;;41.55;23.02;;;9.10;99.90;;;;;;5100347;28;20106;-81
2022/03/31 04:25:10;;;;;;;36.00;19.52;;;9.00;99.90;;;;;;5099961;28;20035;-82
2022/03/31 04:27:37;;;;;;;42.60;20.08;;;9.00;99.90;;;;;;5100083;28;20050;-82
2022/03/31 04:30:06;;;;;;;49.33;22.48;;;9.00;99.90;;;;;;5098968;28;20035;-81
2022/03/31 04:32:32;;;;;;;42.85;22.45;;;9.00;99.90;;;;;;5100236;28;20594;-82
2022/03/31 04:34:58;;;;;;;48.20;23.67;;;9.00;99.90;;;;;;5098737;28;20400;-81
2022/03/31 04:37:24;;;;;;;39.45;22.65;;;9.00;99.90;;;;;;5099553;28;20024;-82
2022/03/31 04:39:50;;;;;;;36.05;20.63;;;9.00;99.90;;;;;;5100321;28;20028;-82
2022/03/31 04:42:16;;;;;;;43.47;21.27;;;9.00;99.90;;;;;;5100208;28;20031;-80
2022/03/31 04:44:42;;;;;;;40.95;21.65;;;9.00;99.90;;;;;;5098140;28;20056;-82
2022/03/31 04:47:08;;;;;;;42.08;21.75;;;9.00;99.90;;;;;;5099875;28;20377;-81
2022/03/31 04:49:34;;;;;;;39.78;23.08;;;9.00;99.90;;;;;;5099667;28;20103;-81
2022/03/31 04:52:00;;;;;;;36.60;22.38;;;9.00;99.90;;;;;;5099645;28;20047;-81
2022/03/31 04:54:26;;;;;;;46.20;21.48;;;9.00;99.90;;;;;;5098151;28;20016;-81
2022/03/31 04:56:52;;;;;;;42.70;23.08;;;9.00;99.90;;;;;;5099810;28;20394;-80
2022/03/31 04:59:18;;;;;;;48.95;22.80;;;9.00;99.90;;;;;;5097790;28;20047;-81
2022/03/31 05:01:44;;;;;;;39.63;22.23;;;9.00;99.90;;;;;;5098067;28;20077;-81
2022/03/31 05:04:11;;;;;;;41.70;23.75;;;9.00;99.90;;;;;;5099330;28;20035;-81
2022/03/31 05:06:37;;;;;;;39.10;21.15;;;9.00;99.90;;;;;;5099347;28;20427;-82
2022/03/31 05:09:03;;;;;;;45.53;20.65;;;9.00;99.90;;;;;;5097949;28;20027;-81
2022/03/31 05:11:29;;;;;;;45.00;21.02;;;9.10;99.90;;;;;;5097922;28;20035;-82
2022/03/31 05:13:55;;;;;;;43.80;22.40;;;9.10;99.90;;;;;;5099189;28;20020;-82
2022/03/31 05:16:21;;;;;;;39.35;23.45;;;9.10;99.90;;;;;;5097890;28;20039;-82
2022/03/31 05:18:47;;;;;;;43.58;24.55;;;9.10;99.90;;;;;;5099160;28;20020;-81
2022/03/31 05:21:14;;;;;;;49.33;24.02;;;9.10;99.90;;;;;;5099108;28;20501;-81
2022/03/31 05:23:40;;;;;;;48.25;26.13;;;9.10;99.90;;;;;;5098887;28;20027;-82
2022/03/31 05:26:06;;;;;;;48.25;25.25;;;9.10;99.90;;;;;;5097639;28;20020;-81
2022/03/31 05:28:33;;;;;;;45.55;22.75;;;9.10;99.90;;;;;;5097680;28;20024;-81
2022/03/31 05:30:59;;;;;;;41.72;22.63;;;9.10;99.90;;;;;;5088491;28;20024;-82
2022/03/31 05:33:24;;;;;;;47.35;25.52;;;9.10;99.90;;;;;;5097723;28;20756;-81
2022/03/31 05:35:50;;;;;;;44.75;21.65;;;9.10;99.90;;;;;;5098868;28;20028;-81
2022/03/31 05:38:16;;;;;;;47.67;23.77;;;9.10;99.90;;;;;;5097190;28;20512;-81
2022/03/31 05:40:42;;;;;;;59.75;25.38;;;9.10;99.90;;;;;;5083683;28;20025;-83
2022/03/31 05:43:08;;;;;;;46.40;23.50;;;9.20;99.90;;;;;;5079245;28;20068;-80
2022/03/31 05:45:34;;;;;;;46.20;22.73;;;9.10;99.90;;;;;;5085630;28;20491;-80
2022/03/31 05:47:59;;;;;;;40.10;22.20;;;9.20;99.90;;;;;;5086054;28;20092;-80
2022/03/31 05:50:25;;;;;;;39.15;22.67;;;9.20;99.90;;;;;;5076834;28;20016;-80
2022/03/31 05:52:51;;;;;;;45.92;23.50;;;9.10;99.90;;;;;;5077806;28;20500;-81
2022/03/31 05:55:19;;;;;;;46.40;23.05;;;9.20;99.90;;;;;;5078524;28;20033;-80
2022/03/31 05:57:46;;;;;;;34.38;23.20;;;9.20;99.90;;;;;;5079680;28;20020;-80
2022/03/31 06:00:15;;;;;;;39.58;23.83;;;9.20;99.90;;;;;;5078503;28;20120;-81
2022/03/31 06:02:41;;;;;;;38.67;20.45;;;9.20;99.90;;;;;;5079153;28;20034;-80
2022/03/31 06:05:08;;;;;;;43.20;23.88;;;9.20;99.90;;;;;;5079018;28;20073;-80
2022/03/31 06:07:34;;;;;;;43.13;25.20;;;9.20;99.90;;;;;;5089488;28;20016;-82
2022/03/31 06:10:00;;;;;;;35.13;22.42;;;9.20;99.90;;;;;;5083778;28;20051;-81
2022/03/31 06:12:26;;;;;;;39.95;24.15;;;9.20;99.90;;;;;;5084307;28;20028;-81
2022/03/31 06:14:52;;;;;;;38.90;24.67;;;9.20;99.90;;;;;;5081092;28;20492;-79
2022/03/31 06:17:18;;;;;;;38.80;21.92;;;9.20;99.90;;;;;;5079307;28;20021;-80
2022/03/31 06:19:44;;;;;;;47.47;25.65;;;9.20;99.90;;;;;;5078628;28;20112;-80
2022/03/31 06:22:10;;;;;;;42.55;22.80;;;9.20;99.90;;;;;;5081864;28;20500;-80
2022/03/31 06:24:36;;;;;;;55.55;25.58;;;9.20;99.90;;;;;;5076995;28;20032;-79
2022/03/31 06:27:03;;;;;;;46.10;27.02;;;9.20;99.90;;;;;;5078872;28;20028;-81
2022/03/31 06:29:30;;;;;;;46.72;28.00;;;9.20;99.90;;;;;;5077882;28;20381;-81
2022/03/31 06:31:56;;;;;;;60.80;27.00;;;9.20;99.90;;;;;;5081194;28;20027;-79
2022/03/31 06:34:23;;;;;;;53.38;27.88;;;9.20;99.90;;;;;;5090140;28;20020;-79
2022/03/31 06:36:50;;;;;;;48.33;29.27;;;9.30;99.90;;;;;;5093539;28;20403;-80
2022/03/31 06:39:17;;;;;;;53.20;29.52;;;9.30;99.90;;;;;;5081795;28;20468;-85
2022/03/31 06:41:43;;;;;;;52.30;29.80;;;9.30;99.90;;;;;;5093317;28;20047;-84
2022/03/31 06:44:13;;;;;;;44.58;22.75;;;9.30;99.90;;;;;;5096721;28;20050;-82
2022/03/31 06:46:42;;;;;;;55.15;28.88;;;9.40;99.90;;;;;;5097324;28;20028;-84
2022/03/31 06:49:09;;;;;;;60.53;33.17;;;9.40;99.90;;;;;;5096680;28;20016;-83
2022/03/31 06:51:35;;;;;;;57.67;32.97;;;9.40;99.90;;;;;;5097040;28;20069;-82
2022/03/31 06:54:02;;;;;;;60.28;31.85;;;9.40;99.90;;;;;;5093475;28;20020;-82
2022/03/31 06:56:29;;;;;;;60.13;32.72;;;9.40;99.90;;;;;;5097365;28;20020;-83
2022/03/31 06:58:56;;;;;;;58.13;33.65;;;9.50;99.90;;;;;;5096455;28;20024;-83
2022/03/31 07:01:23;;;;;;;63.90;35.38;;;9.50;99.90;;;;;;5096914;28;20051;-84
2022/03/31 07:03:49;;;;;;;62.45;35.15;;;9.50;99.90;;;;;;5097448;28;20035;-83
2022/03/31 07:06:15;;;;;;;65.22;36.78;;;9.50;99.90;;;;;;5095142;28;20047;-82
2022/03/31 07:08:41;;;;;;;59.03;35.55;;;9.40;99.90;;;;;;5083626;28;20027;-82
2022/03/31 07:11:09;;;;;;;76.78;34.65;;;9.40;99.90;;;;;;5097597;28;20506;-82
2022/03/31 07:13:36;;;;;;;60.67;33.55;;;9.40;99.90;;;;;;5096934;28;20020;-83
2022/03/31 07:16:02;;;;;;;62.88;33.13;;;9.40;99.90;;;;;;5097927;28;20035;-82
2022/03/31 07:18:28;;;;;;;60.97;32.10;;;9.40;99.90;;;;;;5098315;28;20498;-82
2022/03/31 07:20:57;;;;;;;55.72;31.73;;;9.40;99.90;;;;;;5097855;28;20065;-83
2022/03/31 07:23:25;;;;;;;59.47;32.88;;;9.50;99.90;;;;;;5098261;28;20031;-82
2022/03/31 07:25:53;;;;;;;61.00;31.83;;;9.60;99.90;;;;;;5097236;28;20032;-83
2022/03/31 07:28:19;;;;;;;56.08;30.70;;;9.60;99.90;;;;;;5097247;28;20024;-82
2022/03/31 07:30:45;;;;;;;55.00;31.67;;;9.70;99.90;;;;;;5083783;28;20034;-83
2022/03/31 07:33:11;;;;;;;52.47;29.02;;;9.70;99.90;;;;;;5097524;28;20044;-82
2022/03/31 07:35:37;;;;;;;55.05;30.15;;;9.70;99.90;;;;;;5091793;28;20032;-81
2022/03/31 07:38:07;;;;;;;58.15;26.80;;;9.70;99.90;;;;;;5096916;28;20419;-83
2022/03/31 07:40:33;;;;;;;41.05;24.20;;;9.70;99.90;;;;;;5096538;28;20579;-84
2022/03/31 07:43:01;;;;;;;61.22;30.77;;;9.60;99.90;;;;;;5097487;28;20028;-83
2022/03/31 07:45:28;;;;;;;47.92;28.10;;;9.60;99.90;;;;;;5097571;28;20384;-82
2022/03/31 07:47:55;;;;;;;47.55;24.58;;;9.60;99.90;;;;;;5097341;28;20419;-84
2022/03/31 07:50:22;;;;;;;50.10;27.52;;;9.50;99.90;;;;;;5091664;28;20029;-83
2022/03/31 07:52:49;;;;;;;48.28;26.90;;;9.50;99.90;;;;;;5095993;28;20345;-84
2022/03/31 07:55:16;;;;;;;47.97;28.35;;;9.50;99.90;;;;;;5094559;28;20024;-83
2022/03/31 07:57:43;;;;;;;48.90;24.63;;;9.50;99.90;;;;;;5094632;28;20016;-83
2022/03/31 08:00:11;;;;;;;42.03;23.85;;;9.50;99.90;;;;;;5094977;28;20024;-82
2022/03/31 08:02:40;;;;;;;45.53;24.33;;;9.40;99.90;;;;;;5096340;28;20024;-84
2022/03/31 08:05:06;;;;;;;44.00;24.17;;;9.40;99.90;;;;;;5098891;28;20024;-83
2022/03/31 08:07:32;;;;;;;44.72;23.50;;;9.40;99.90;;;;;;5098842;28;20024;-83
2022/03/31 08:09:58;;;;;;;44.72;25.45;;;9.30;99.90;;;;;;5100369;28;20499;-83
2022/03/31 08:12:24;;;;;;;47.75;25.48;;;9.30;99.90;;;;;;5090297;28;20077;-84
2022/03/31 08:14:49;;;;;;;45.50;24.10;;;9.30;99.90;;;;;;5099974;28;20061;-87
2022/03/31 08:17:17;;;;;;;38.97;24.02;;;9.30;99.90;;;;;;5098711;28;20492;-88
2022/03/31 08:19:43;;;;;;;43.55;25.08;;;9.30;99.90;;;;;;5100443;28;20099;-86
2022/03/31 08:22:11;;;;;;;39.72;22.75;;;9.40;99.90;;;;;;5098441;28;20036;-85
2022/03/31 08:24:36;;;;;;;37.13;23.60;;;9.50;99.90;;;;;;5090716;28;20388;-85
2022/03/31 08:27:03;;;;;;;34.38;20.45;;;9.50;99.90;;;;;;5100214;28;20020;-87
2022/03/31 08:29:29;;;;;;;27.52;16.15;;;9.60;99.90;;;;;;5091190;28;20048;-88
2022/03/31 08:31:56;;;;;;;33.28;20.08;;;9.70;99.90;;;;;;5096521;28;20117;-83
2022/03/31 08:34:22;;;;;;;27.80;17.98;;;9.90;99.90;;;;;;5093844;28;20120;-82
2022/03/31 08:36:48;;;;;;;27.25;15.27;;;10.00;99.90;;;;;;5099703;28;20035;-84
2022/03/31 08:39:14;;;;;;;27.27;16.25;;;10.00;99.90;;;;;;5100135;28;20360;-83
2022/03/31 08:41:43;;;;;;;23.08;15.02;;;10.00;99.90;;;;;;5098780;28;20050;-83
2022/03/31 08:44:15;;;;;;;27.48;15.30;;;10.00;99.90;;;;;;5099379;28;20505;-84
2022/03/31 08:46:41;;;;;;;24.17;15.00;;;10.00;99.90;;;;;;5099167;28;20035;-82
2022/03/31 08:49:09;;;;;;;24.98;15.25;;;10.00;99.90;;;;;;5098089;28;20031;-84
2022/03/31 08:51:35;;;;;;;24.48;14.73;;;10.00;99.90;;;;;;5087972;28;20020;-84
2022/03/31 08:54:01;;;;;;;23.65;15.27;;;10.00;99.90;;;;;;5100653;28;20025;-89
2022/03/31 08:56:27;;;;;;;25.65;15.43;;;9.90;99.90;;;;;;5089515;28;20017;-84
2022/03/31 08:58:53;;;;;;;31.08;17.30;;;9.90;99.90;;;;;;5090715;28;20067;-87
2022/03/31 09:01:19;;;;;;;32.20;16.83;;;9.80;99.90;;;;;;5084300;28;20020;-83
2022/03/31 09:03:45;;;;;;;26.35;16.08;;;9.80;99.90;;;;;;5080995;28;20032;-86
2022/03/31 09:06:26;;;;;;;23.25;15.07;;;9.70;99.90;;;;;;5076865;28;20032;-79
2022/03/31 09:08:57;;;;;;;22.95;14.25;;;9.60;99.90;;;;;;5082455;28;20032;-87
2022/03/31 09:11:29;;;;;;;;;;;9.50;99.90;;;;;;5095402;28;20017;-81
2022/03/31 09:13:57;;;;;;;27.23;13.98;;;9.40;99.90;;;;;;5098099;28;20296;-81
2022/03/31 09:16:33;;;;;;;19.45;13.75;;;9.40;99.90;;;;;;5097151;28;20025;-81
2022/03/31 09:19:03;;;;;;;23.95;14.32;;;9.50;99.90;;;;;;5097264;28;20112;-82
2022/03/31 09:21:31;;;;;;;21.55;13.77;;;9.60;99.90;;;;;;5084245;28;20028;-83
2022/03/31 09:23:58;;;;;;;24.80;15.20;;;9.70;99.90;;;;;;5083548;28;20020;-84
2022/03/31 09:26:27;;;;;;;25.25;14.60;;;9.80;99.90;;;;;;5091633;28;20096;-82
2022/03/31 09:28:55;;;;;;;23.17;14.40;;;9.90;99.90;;;;;;5097352;28;20008;-83
2022/03/31 09:31:26;;;;;;;38.40;22.05;;;9.90;99.90;;;;;;5077409;28;20012;-82
2022/03/31 09:33:57;;;;;;;24.40;14.93;;;10.00;99.90;;;;;;5079973;28;20508;-83
2022/03/31 09:36:24;;;;;;;22.63;16.13;;;10.10;99.90;;;;;;5083381;28;20555;-83
2022/03/31 09:38:54;;;;;;;27.15;16.40;;;10.00;99.90;;;;;;5085221;28;20028;-83
2022/03/31 09:41:20;;;;;;;27.05;15.55;;;10.20;99.90;;;;;;5098738;28;20396;-82
2022/03/31 09:43:48;;;;;;;31.85;19.45;;;10.30;99.90;;;;;;5097881;28;20058;-83
2022/03/31 09:46:21;;;;;;;26.10;17.60;;;10.30;99.90;;;;;;5098502;28;20024;-84
2022/03/31 09:48:48;;;;;;;28.30;16.20;;;10.30;99.90;;;;;;5098621;28;20021;-83
2022/03/31 09:51:14;;;;;;;28.65;17.90;;;10.40;99.90;;;;;;5098332;28;20032;-83
2022/03/31 09:53:41;;;;;;;28.35;18.35;;;10.40;99.90;;;;;;5096971;28;20488;-82
2022/03/31 09:56:08;;;;;;;29.27;16.20;;;10.60;99.90;;;;;;5096999;28;20078;-82
2022/03/31 09:58:38;;;;;;;29.63;17.70;;;10.80;99.90;;;;;;5097973;28;20551;-79
2022/03/31 10:01:05;;;;;;;30.60;18.63;;;10.80;99.90;;;;;;5097876;28;20455;-80
2022/03/31 10:03:33;;;;;;;31.25;16.13;;;11.10;99.90;;;;;;5098257;28;20039;-80
2022/03/31 10:06:01;;;;;;;34.30;19.45;;;11.20;99.90;;;;;;5096694;28;20049;-79
2022/03/31 10:08:32;;;;;;;33.72;17.58;;;11.40;99.90;;;;;;5097257;28;20024;-82
2022/03/31 10:10:59;;;;;;;35.03;18.88;;;11.70;99.90;;;;;;5098136;28;20447;-83
2022/03/31 10:13:32;;;;;;;28.25;15.02;;;11.80;99.90;;;;;;5096428;28;20058;-81
2022/03/31 10:16:09;;;;;;;38.83;21.35;;;11.60;99.90;;;;;;5097374;28;20039;-81
2022/03/31 10:18:36;;;;;;;35.60;21.52;;;11.50;99.90;;;;;;5096897;28;20028;-82
2022/03/31 10:21:02;;;;;;;34.72;19.90;;;11.50;99.90;;;;;;5097850;28;20032;-81
2022/03/31 10:26:27;;;;;;;36.20;20.70;;;11.90;99.90;;;;;;5080725;28;20075;-81
2022/03/31 10:28:58;;;;;;;31.55;18.67;;;12.10;99.90;;;;;;5091360;28;20031;-78
2022/03/31 10:31:37;;;;;;;32.72;16.65;;;11.90;99.90;;;;;;5097674;28;20489;-78
2022/03/31 10:34:03;;;;;;;30.08;16.52;;;11.60;99.90;;;;;;5079301;28;20024;-79
2022/03/31 10:36:47;;;;;;;29.23;18.10;;;11.50;99.90;;;;;;5093014;28;20451;-79
2022/03/31 10:39:19;;;;;;;28.15;17.65;;;11.50;99.90;;;;;;5086431;28;20031;-83
2022/03/31 10:41:46;;;;;;;35.97;20.27;;;11.60;99.90;;;;;;5096109;28;20039;-80
2022/03/31 10:44:11;;;;;;;29.25;18.08;;;11.80;99.90;;;;;;5096469;28;20067;-80
2022/03/31 10:46:39;;;;;;;39.60;21.50;;;11.90;99.90;;;;;;5095802;28;20036;-83
2022/03/31 10:49:13;;;;;;;28.95;19.52;;;11.90;99.90;;;;;;5087972;28;20048;-81
2022/03/31 10:51:43;;;;;;;31.38;17.58;;;12.20;99.90;;;;;;5090215;28;20020;-79
2022/03/31 10:54:22;;;;;;;34.22;18.55;;;12.50;99.90;;;;;;5080834;28;20110;-81
2022/03/31 10:56:47;;;;;;;28.55;18.90;;;12.50;99.90;;;;;;5096101;28;20040;-79
2022/03/31 10:59:15;;;;;;;31.73;20.10;;;12.50;99.90;;;;;;5093615;28;20035;-81
2022/03/31 11:01:42;;;;;;;40.33;20.48;;;12.50;99.90;;;;;;5089717;28;20412;-80
2022/03/31 11:04:10;;;;;;;51.58;24.75;;;12.60;99.90;;;;;;5089598;28;20116;-82
2022/03/31 11:06:52;;;;;;;34.03;17.05;;;12.50;99.90;;;;;;5096890;28;20029;-81
2022/03/31 11:09:22;;;;;;;31.98;16.17;;;12.60;99.90;;;;;;5096630;28;20040;-82
2022/03/31 11:11:52;;;;;;;27.05;15.43;;;12.50;99.90;;;;;;5096960;28;20012;-79
2022/03/31 11:14:19;;;;;;;25.13;16.95;;;12.30;99.90;;;;;;5097277;28;20554;-83
2022/03/31 11:16:45;;;;;;;23.55;14.20;;;12.10;99.90;;;;;;5096491;28;20028;-81
2022/03/31 11:19:13;;;;;;;22.70;14.60;;;12.00;99.90;;;;;;5096904;28;20028;-80
2022/03/31 11:21:42;;;;;;;19.25;13.70;;;12.00;99.90;;;;;;5096267;28;20054;-80
2022/03/31 11:24:10;;;;;;;21.90;14.45;;;12.20;99.90;;;;;;5095665;28;20039;-82
2022/03/31 11:26:40;;;;;;;28.05;14.18;;;12.30;99.90;;;;;;5097831;28;20028;-81
2022/03/31 11:29:17;;;;;;;23.90;13.40;;;12.40;99.90;;;;;;5089850;28;20505;-80
2022/03/31 11:31:47;;;;;;;22.20;14.23;;;12.60;99.90;;;;;;5091470;28;20024;-79
2022/03/31 11:34:19;;;;;;;17.57;11.23;;;12.70;99.90;;;;;;5097293;28;20125;-82
2022/03/31 11:36:45;;;;;;;18.38;12.77;;;12.90;99.90;;;;;;5096090;28;20262;-79
2022/03/31 11:39:10;;;;;;;21.13;12.00;;;13.00;99.90;;;;;;5100026;28;20032;-78
2022/03/31 11:41:39;;;;;;;21.27;11.35;;;13.00;99.90;;;;;;5101569;28;20024;-79
2022/03/31 11:44:07;;;;;;;20.88;12.13;;;12.90;99.90;;;;;;5097350;28;20072;-80
2022/03/31 11:46:47;;;;;;;20.42;13.63;;;12.70;99.90;;;;;;5082379;28;20062;-80
2022/03/31 11:49:25;;;;;;;21.02;13.60;;;12.70;99.90;;;;;;5094872;28;20028;-79
2022/03/31 11:51:52;;;;;;;22.98;14.38;;;12.80;99.90;;;;;;5100557;28;20024;-81
2022/03/31 11:54:20;;;;;;;21.85;12.52;;;12.80;99.90;;;;;;5099841;28;20395;-82
2022/03/31 11:56:46;;;;;;;17.48;12.65;;;12.70;99.90;;;;;;5098910;28;20078;-80
2022/03/31 11:59:15;;;;;;;18.80;12.38;;;12.60;99.90;;;;;;5099631;28;20101;-81
2022/03/31 12:01:43;;;;;;;19.55;12.25;;;12.50;99.90;;;;;;5100006;28;20016;-81
2022/03/31 12:04:26;;;;;;;16.35;10.00;;;12.50;99.90;;;;;;5100623;28;20073;-78
2022/03/31 12:06:54;;;;;;;20.00;11.63;;;12.60;99.90;;;;;;5098012;28;20380;-79
2022/03/31 12:09:27;;;;;;;16.88;10.48;;;12.90;99.90;;;;;;5098654;28;20024;-79
2022/03/31 12:11:54;;;;;;;19.63;10.68;;;13.10;99.90;;;;;;5097725;28;20089;-81
2022/03/31 12:14:20;;;;;;;18.02;10.70;;;13.20;99.90;;;;;;5089640;28;20047;-80
2022/03/31 12:16:54;;;;;;;17.75;10.50;;;13.30;99.90;;;;;;5079570;28;20535;-81
2022/03/31 12:19:21;;;;;;;19.10;10.90;;;13.30;99.90;;;;;;5098456;28;20036;-80
2022/03/31 12:21:52;;;;;;;16.50;8.82;;;13.20;99.90;;;;;;5100141;28;20035;-79
2022/03/31 12:24:19;;;;;;;24.75;10.25;;;13.20;99.90;;;;;;5098719;28;20028;-79
2022/03/31 12:27:05;;;;;;;18.40;11.60;;;13.30;99.90;;;;;;5099789;28;20024;-79
2022/03/31 12:29:34;;;;;;;20.30;11.35;;;13.40;99.90;;;;;;5090536;28;20020;-81
2022/03/31 12:32:01;;;;;;;23.02;10.93;;;13.50;99.90;;;;;;5094558;28;20024;-79
2022/03/31 12:34:27;;;;;;;18.58;11.80;;;13.70;99.90;;;;;;5098608;28;20071;-79
2022/03/31 12:36:53;;;;;;;14.40;8.35;;;13.90;99.90;;;;;;5099797;28;20020;-80
2022/03/31 12:39:19;;;;;;;14.27;8.25;;;13.90;99.90;;;;;;5098699;28;20031;-80
2022/03/31 12:41:51;;;;;;;17.67;10.45;;;14.00;99.90;;;;;;5098225;28;20045;-78